Time;durP1;ratioP1;P1;durP2;ratioP2;P2;SDS_P1;SDS_P2;PMS_P1;PMS_P2;Temp;Humidity;BMP_temperature;BMP_pressure;BME280_temperature;BME280_humidity;BME280_pressure;Samples;Min_cycle;Max_cycle;Signal;HPM_P1;HPM_P2
2021/10/20 00:01:35;;;;;;;3.92;0.85;;;;;15.30;101337.00;;;;5089349;28;20043;-73
2021/10/20 00:04:06;;;;;;;2.03;0.77;;;;;15.30;101339.00;;;;5089078;28;20072;-72
2021/10/20 00:06:35;;;;;;;4.70;0.80;;;;;15.20;101327.00;;;;5088799;28;20056;-74
2021/10/20 00:09:05;;;;;;;6.15;0.95;;;;;15.20;101325.00;;;;5089102;28;20051;-73
2021/10/20 00:11:36;;;;;;;4.47;0.80;;;;;15.20;101324.00;;;;5088176;28;20052;-76
2021/10/20 00:14:06;;;;;;;5.10;0.85;;;;;15.00;101330.00;;;;5090039;28;20522;-73
2021/10/20 00:16:35;;;;;;;4.78;0.95;;;;;14.90;101331.00;;;;5089049;28;20086;-74
2021/10/20 00:19:05;;;;;;;2.75;0.90;;;;;14.90;101350.00;;;;5088609;28;20039;-74
2021/10/20 00:21:34;;;;;;;5.57;1.65;;;;;14.80;101340.00;;;;5088990;28;20419;-73
2021/10/20 00:24:04;;;;;;;9.25;1.27;;;;;14.80;101347.00;;;;5089030;28;20056;-74
2021/10/20 00:26:33;;;;;;;5.10;1.00;;;;;14.80;101329.00;;;;5089122;28;20047;-74
2021/10/20 00:29:03;;;;;;;5.75;1.10;;;;;14.80;101356.00;;;;5087469;28;20534;-73
2021/10/20 00:31:33;;;;;;;3.47;1.00;;;;;14.80;101339.00;;;;5088380;28;20048;-72
2021/10/20 00:34:02;;;;;;;10.98;1.50;;;;;14.70;101338.00;;;;5088489;28;20119;-74
2021/10/20 00:36:31;;;;;;;5.93;1.10;;;;;14.80;101349.00;;;;5087681;28;20043;-72
2021/10/20 00:39:01;;;;;;;6.00;0.82;;;;;14.70;101332.00;;;;5088054;28;20055;-74
2021/10/20 00:41:31;;;;;;;1.85;0.70;;;;;14.60;101344.00;;;;5088175;28;20048;-74
2021/10/20 00:44:00;;;;;;;4.50;1.00;;;;;14.60;101343.00;;;;5087943;28;20044;-73
2021/10/20 00:46:30;;;;;;;7.10;1.13;;;;;14.50;101343.00;;;;5088728;28;20055;-75
2021/10/20 00:49:00;;;;;;;4.47;1.10;;;;;14.50;101321.00;;;;5088208;28;20048;-74
2021/10/20 00:51:30;;;;;;;4.90;1.10;;;;;14.50;101362.00;;;;5088811;28;20683;-73
2021/10/20 00:53:59;;;;;;;4.32;0.88;;;;;14.60;101355.00;;;;5087272;28;20055;-73
2021/10/20 00:56:30;;;;;;;5.75;1.20;;;;;14.70;101350.00;;;;5087893;28;20094;-74
2021/10/20 00:59:00;;;;;;;;;;;;;14.70;101358.00;;;;5088905;28;20047;-75
2021/10/20 01:01:29;;;;;;;1.63;0.75;;;;;14.80;101356.00;;;;5087206;28;20294;-75
2021/10/20 01:03:59;;;;;;;7.95;1.15;;;;;14.70;101371.00;;;;5088332;28;20058;-74
2021/10/20 01:06:30;;;;;;;6.05;0.80;;;;;14.60;101365.00;;;;5088445;28;20079;-75
2021/10/20 01:09:00;;;;;;;4.90;0.95;;;;;14.60;101355.00;;;;5087543;28;20036;-74
2021/10/20 01:11:30;;;;;;;7.13;1.00;;;;;14.40;101366.00;;;;5088047;28;20074;-73
2021/10/20 01:14:00;;;;;;;1.15;0.52;;;;;14.30;101361.00;;;;5088491;28;20044;-73
2021/10/20 01:16:29;;;;;;;3.90;1.15;;;;;14.20;101362.00;;;;5087888;28;20066;-75
2021/10/20 01:18:59;;;;;;;6.00;1.10;;;;;14.20;101336.00;;;;5088080;28;20044;-74
2021/10/20 01:21:28;;;;;;;2.38;0.82;;;;;14.40;101343.00;;;;5087791;28;20044;-75
2021/10/20 01:23:59;;;;;;;5.90;1.10;;;;;14.40;101334.00;;;;5087915;28;20514;-74
2021/10/20 01:26:29;;;;;;;2.67;0.80;;;;;14.40;101336.00;;;;5088000;28;20047;-73
2021/10/20 01:28:59;;;;;;;6.28;0.63;;;;;14.30;101319.00;;;;5086842;28;20059;-75
2021/10/20 01:31:28;;;;;;;3.22;1.00;;;;;14.10;101334.00;;;;5087750;28;20067;-75
2021/10/20 01:33:58;;;;;;;6.25;1.35;;;;;14.30;101331.00;;;;5087740;28;20052;-73
2021/10/20 01:36:28;;;;;;;4.75;1.10;;;;;14.50;101341.00;;;;5087863;28;20040;-73
2021/10/20 01:38:57;;;;;;;4.15;0.70;;;;;14.50;101342.00;;;;5087848;28;20048;-72
2021/10/20 01:41:27;;;;;;;4.78;1.02;;;;;14.50;101331.00;;;;5087359;28;20044;-73
2021/10/20 01:43:57;;;;;;;5.88;1.00;;;;;14.40;101326.00;;;;5087448;28;20074;-74
2021/10/20 01:46:26;;;;;;;5.03;1.10;;;;;14.30;101329.00;;;;5087093;28;20089;-74
2021/10/20 01:48:55;;;;;;;6.07;1.17;;;;;14.20;101325.00;;;;5088090;28;20093;-74
2021/10/20 01:51:25;;;;;;;9.25;1.17;;;;;14.10;101317.00;;;;5087684;28;20438;-72
2021/10/20 01:53:54;;;;;;;7.40;0.88;;;;;14.00;101323.00;;;;5087771;28;20093;-74
2021/10/20 01:56:24;;;;;;;1.98;0.70;;;;;13.80;101316.00;;;;5087529;28;20048;-72
2021/10/20 01:58:53;;;;;;;5.43;0.70;;;;;13.70;101332.00;;;;5086092;28;20046;-74
2021/10/20 02:01:23;;;;;;;5.25;0.82;;;;;13.60;101330.00;;;;5087166;28;20514;-75
2021/10/20 02:03:53;;;;;;;4.35;0.90;;;;;13.50;101317.00;;;;5086716;28;20427;-75
2021/10/20 02:06:22;;;;;;;2.40;0.70;;;;;13.40;101301.00;;;;5086942;28;20056;-74
2021/10/20 02:08:52;;;;;;;3.20;0.80;;;;;13.20;101305.00;;;;5087125;28;20525;-73
2021/10/20 02:11:22;;;;;;;3.65;0.60;;;;;13.20;101303.00;;;;5087073;28;20427;-73
2021/10/20 02:13:51;;;;;;;9.18;1.25;;;;;13.00;101307.00;;;;5087358;28;20056;-75
2021/10/20 02:16:21;;;;;;;3.10;0.80;;;;;12.90;101306.00;;;;5087585;28;20058;-74
2021/10/20 02:18:51;;;;;;;3.28;1.00;;;;;12.80;101305.00;;;;5086746;28;20044;-74
2021/10/20 02:21:21;;;;;;;4.50;1.17;;;;;12.90;101321.00;;;;5087466;28;20403;-73
2021/10/20 02:23:50;;;;;;;6.13;0.93;;;;;12.80;101327.00;;;;5087057;28;20419;-73
2021/10/20 02:26:20;;;;;;;6.22;0.82;;;;;12.80;101330.00;;;;5086221;28;20044;-74
2021/10/20 02:28:49;;;;;;;9.40;1.00;;;;;12.80;101317.00;;;;5085497;28;20040;-74
2021/10/20 02:31:18;;;;;;;3.08;0.80;;;;;12.80;101306.00;;;;5086791;28;20040;-75
2021/10/20 02:33:49;;;;;;;4.43;0.85;;;;;12.90;101313.00;;;;5086885;28;20048;-73
2021/10/20 02:36:18;;;;;;;4.25;0.98;;;;;12.90;101306.00;;;;5086613;28;20048;-73
2021/10/20 02:38:48;;;;;;;5.90;0.82;;;;;12.80;101326.00;;;;5086454;28;20040;-73
2021/10/20 02:41:17;;;;;;;7.93;1.00;;;;;12.90;101306.00;;;;5085508;28;20056;-74
2021/10/20 02:43:47;;;;;;;5.13;1.17;;;;;12.90;101303.00;;;;5086897;28;20048;-73
2021/10/20 02:46:16;;;;;;;3.75;1.08;;;;;12.90;101306.00;;;;5087466;28;20051;-72
2021/10/20 02:48:45;;;;;;;7.20;1.10;;;;;13.10;101304.00;;;;5086831;28;20143;-73
2021/10/20 02:51:15;;;;;;;2.83;0.90;;;;;13.10;101304.00;;;;5086781;28;20036;-74
2021/10/20 02:53:44;;;;;;;3.67;0.88;;;;;13.10;101282.00;;;;5086652;28;20051;-74
2021/10/20 02:56:15;;;;;;;8.30;0.70;;;;;13.10;101298.00;;;;5085999;28;20052;-74
2021/10/20 02:58:45;;;;;;;6.15;0.82;;;;;13.00;101296.00;;;;5087378;28;20052;-74
2021/10/20 03:01:14;;;;;;;7.43;1.23;;;;;12.90;101281.00;;;;5090589;28;20518;-73
2021/10/20 03:03:45;;;;;;;5.35;0.90;;;;;12.90;101293.00;;;;5090855;28;20044;-75
2021/10/20 03:06:17;;;;;;;6.47;0.80;;;;;13.00;101283.00;;;;5090352;28;20416;-74
2021/10/20 03:08:48;;;;;;;4.63;1.10;;;;;13.00;101275.00;;;;5089487;28;20036;-73
2021/10/20 03:11:17;;;;;;;6.57;0.97;;;;;12.90;101301.00;;;;5090242;28;20461;-72
2021/10/20 03:13:47;;;;;;;3.88;1.23;;;;;12.80;101290.00;;;;5091429;28;20048;-73
2021/10/20 03:16:17;;;;;;;5.00;1.08;;;;;12.60;101303.00;;;;5089653;28;20418;-75
2021/10/20 03:18:46;;;;;;;5.63;1.10;;;;;12.40;101271.00;;;;5090727;28;20048;-73
2021/10/20 03:21:16;;;;;;;7.78;0.90;;;;;12.30;101279.00;;;;5090124;28;20089;-75
2021/10/20 03:23:45;;;;;;;8.75;0.75;;;;;12.20;101286.00;;;;5090432;28;20055;-75
2021/10/20 03:26:15;;;;;;;4.05;0.95;;;;;12.10;101269.00;;;;5090100;28;20744;-75
2021/10/20 03:28:44;;;;;;;5.47;0.98;;;;;12.10;101290.00;;;;5090137;28;20050;-73
2021/10/20 03:31:14;;;;;;;3.90;0.80;;;;;12.00;101291.00;;;;5090173;28;20143;-73
2021/10/20 03:33:44;;;;;;;3.95;0.98;;;;;11.90;101263.00;;;;5090210;28;20048;-74
2021/10/20 03:36:14;;;;;;;6.35;1.00;;;;;11.90;101264.00;;;;5090637;28;20036;-75
2021/10/20 03:38:43;;;;;;;6.43;0.95;;;;;11.80;101280.00;;;;5090760;28;20601;-72
2021/10/20 03:41:13;;;;;;;3.22;1.00;;;;;11.80;101280.00;;;;5090560;28;20090;-73
2021/10/20 03:43:42;;;;;;;8.07;1.23;;;;;11.80;101259.00;;;;5090062;28;20044;-74
2021/10/20 03:46:12;;;;;;;4.43;1.10;;;;;11.70;101260.00;;;;5089606;28;20040;-73
2021/10/20 03:48:41;;;;;;;1.85;0.60;;;;;11.60;101251.00;;;;5089557;28;20094;-73
2021/10/20 03:51:12;;;;;;;5.82;0.70;;;;;11.50;101241.00;;;;5088720;28;20059;-73
2021/10/20 03:53:41;;;;;;;4.32;0.90;;;;;11.50;101253.00;;;;5089595;28;20507;-74
2021/10/20 03:56:11;;;;;;;8.50;1.10;;;;;11.40;101254.00;;;;5089536;28;20418;-75
2021/10/20 03:58:40;;;;;;;6.78;0.80;;;;;11.40;101243.00;;;;5089955;28;20047;-73
2021/10/20 04:01:10;;;;;;;4.88;0.77;;;;;11.40;101251.00;;;;5089519;28;20036;-74
2021/10/20 04:03:39;;;;;;;7.32;1.25;;;;;11.30;101229.00;;;;5089677;28;20449;-74
2021/10/20 04:06:08;;;;;;;4.53;0.90;;;;;11.30;101261.00;;;;5089496;28;20531;-73
2021/10/20 04:08:38;;;;;;;3.45;0.90;;;;;11.30;101246.00;;;;5089389;28;20047;-74
2021/10/20 04:11:07;;;;;;;4.20;1.20;;;;;11.30;101246.00;;;;5088413;28;20094;-74
2021/10/20 04:13:37;;;;;;;2.20;0.80;;;;;11.30;101244.00;;;;5089477;28;20048;-74
2021/10/20 04:16:09;;;;;;;5.13;1.10;;;;;11.40;101251.00;;;;5089410;28;20036;-74
2021/10/20 04:18:38;;;;;;;4.90;1.10;;;;;11.40;101233.00;;;;5089179;28;20046;-74
2021/10/20 04:21:08;;;;;;;4.50;1.08;;;;;11.20;101253.00;;;;5089254;28;20388;-75
2021/10/20 04:23:38;;;;;;;3.08;1.10;;;;;11.10;101227.00;;;;5089726;28;20032;-72
2021/10/20 04:26:07;;;;;;;2.90;1.02;;;;;11.10;101246.00;;;;5089225;28;20044;-74
2021/10/20 04:28:36;;;;;;;5.05;1.00;;;;;11.10;101242.00;;;;5089261;28;20040;-74
2021/10/20 04:31:06;;;;;;;4.05;0.90;;;;;11.10;101240.00;;;;5089496;28;20812;-75
2021/10/20 04:33:36;;;;;;;4.70;0.90;;;;;11.10;101235.00;;;;5088919;28;20040;-75
2021/10/20 04:36:05;;;;;;;3.55;1.20;;;;;11.00;101206.00;;;;5088902;28;20033;-74
2021/10/20 04:38:35;;;;;;;4.25;0.90;;;;;10.90;101196.00;;;;5087313;28;20511;-74
2021/10/20 04:41:04;;;;;;;3.22;0.90;;;;;10.90;101206.00;;;;5087901;28;20048;-75
2021/10/20 04:43:34;;;;;;;5.53;1.50;;;;;10.90;101198.00;;;;5088299;28;20040;-74
2021/10/20 04:46:04;;;;;;;7.28;1.10;;;;;10.90;101211.00;;;;5088755;28;20541;-73
2021/10/20 04:48:33;;;;;;;5.35;0.80;;;;;10.70;101198.00;;;;5088921;28;20044;-74
2021/10/20 04:51:03;;;;;;;2.90;0.80;;;;;10.70;101205.00;;;;5088427;28;20450;-74
2021/10/20 04:53:32;;;;;;;1.17;0.70;;;;;10.70;101187.00;;;;5088834;28;20044;-74
2021/10/20 04:56:02;;;;;;;6.07;1.10;;;;;10.70;101192.00;;;;5088275;28;20089;-72
2021/10/20 04:58:32;;;;;;;3.35;1.05;;;;;10.60;101211.00;;;;5089194;28;20048;-74
2021/10/20 05:01:01;;;;;;;5.60;0.90;;;;;10.60;101195.00;;;;5087972;28;20063;-75
2021/10/20 05:03:31;;;;;;;2.78;0.93;;;;;10.60;101190.00;;;;5088067;28;20040;-75
2021/10/20 05:06:01;;;;;;;2.35;1.10;;;;;10.60;101184.00;;;;5088294;28;20044;-74
2021/10/20 05:08:30;;;;;;;5.30;1.30;;;;;10.50;101191.00;;;;5088285;28;20089;-73
2021/10/20 05:11:00;;;;;;;4.47;1.23;;;;;10.50;101184.00;;;;5088102;28;20036;-72
2021/10/20 05:13:29;;;;;;;3.30;1.42;;;;;10.50;101170.00;;;;5088335;28;20052;-75
2021/10/20 05:15:59;;;;;;;5.22;1.10;;;;;10.40;101162.00;;;;5088053;28;20048;-75
2021/10/20 05:18:28;;;;;;;2.70;1.23;;;;;10.40;101165.00;;;;5087989;28;20124;-72
2021/10/20 05:20:58;;;;;;;4.22;1.42;;;;;10.40;101175.00;;;;5088141;28;20052;-75
2021/10/20 05:23:27;;;;;;;6.50;1.60;;;;;10.30;101175.00;;;;5086406;28;20055;-73
2021/10/20 05:25:57;;;;;;;5.10;1.67;;;;;10.30;101172.00;;;;5087874;28;20055;-75
2021/10/20 05:28:26;;;;;;;2.92;1.30;;;;;10.30;101181.00;;;;5086369;28;20052;-75
2021/10/20 05:30:56;;;;;;;9.40;1.75;;;;;10.30;101185.00;;;;5087708;28;20044;-74
2021/10/20 05:33:25;;;;;;;5.40;1.70;;;;;10.30;101160.00;;;;5087438;28;20055;-75
2021/10/20 05:35:55;;;;;;;3.25;1.33;;;;;10.30;101175.00;;;;5088565;28;20079;-74
2021/10/20 05:38:25;;;;;;;14.13;2.20;;;;;10.20;101154.00;;;;5086292;28;20040;-75
2021/10/20 05:40:54;;;;;;;4.50;1.77;;;;;10.20;101173.00;;;;5087102;28;20075;-74
2021/10/20 05:43:24;;;;;;;6.88;1.83;;;;;10.20;101144.00;;;;5087681;28;20439;-75
2021/10/20 05:45:54;;;;;;;7.78;1.80;;;;;10.20;101141.00;;;;5088377;28;20402;-73
2021/10/20 05:48:23;;;;;;;5.40;1.90;;;;;10.20;101167.00;;;;5087821;28;20039;-74
2021/10/20 05:50:54;;;;;;;5.80;1.77;;;;;10.20;101149.00;;;;5087402;28;20135;-73
2021/10/20 05:53:24;;;;;;;6.55;1.90;;;;;10.20;101142.00;;;;5087555;28;20044;-75
2021/10/20 05:55:55;;;;;;;4.30;1.80;;;;;10.20;101151.00;;;;5087263;28;20093;-75
2021/10/20 05:58:25;;;;;;;9.63;2.13;;;;;10.20;101142.00;;;;5087436;28;20051;-74
2021/10/20 06:00:54;;;;;;;4.00;1.60;;;;;10.10;101129.00;;;;5086067;28;20047;-73
2021/10/20 06:03:24;;;;;;;5.15;1.70;;;;;10.10;101140.00;;;;5087487;28;20530;-75
2021/10/20 06:05:54;;;;;;;4.47;1.70;;;;;10.00;101143.00;;;;5087306;28;20051;-74
2021/10/20 06:08:24;;;;;;;4.75;1.45;;;;;10.00;101120.00;;;;5087023;28;20097;-73
2021/10/20 06:10:54;;;;;;;3.25;1.33;;;;;9.90;101129.00;;;;5086792;28;20039;-75
2021/10/20 06:13:23;;;;;;;7.25;1.25;;;;;9.90;101124.00;;;;5087680;28;20116;-75
2021/10/20 06:15:56;;;;;;;4.13;1.40;;;;;9.80;101114.00;;;;5086761;28;20055;-73
2021/10/20 06:18:28;;;;;;;5.63;1.45;;;;;9.80;101140.00;;;;5087260;28;20404;-74
2021/10/20 06:20:58;;;;;;;4.00;1.10;;;;;9.80;101114.00;;;;5087068;28;20048;-73
2021/10/20 06:23:27;;;;;;;6.30;1.27;;;;;9.90;101126.00;;;;5087111;28;20427;-75
2021/10/20 06:26:00;;;;;;;6.00;0.98;;;;;9.90;101110.00;;;;5086668;28;20104;-72
2021/10/20 06:28:30;;;;;;;5.80;1.00;;;;;9.90;101125.00;;;;5085659;28;20072;-73
2021/10/20 06:30:59;;;;;;;5.35;1.17;;;;;9.80;101101.00;;;;5086777;28;20055;-74
2021/10/20 06:33:29;;;;;;;7.38;1.17;;;;;9.80;101117.00;;;;5086085;28;20048;-75
2021/10/20 06:36:00;;;;;;;1.95;0.80;;;;;9.70;101120.00;;;;5086872;28;20514;-73
2021/10/20 06:38:29;;;;;;;3.67;0.82;;;;;9.60;101125.00;;;;5087568;28;20423;-73
2021/10/20 06:40:59;;;;;;;1.98;0.90;;;;;9.60;101120.00;;;;5087263;28;20414;-72
2021/10/20 06:43:28;;;;;;;3.70;1.23;;;;;9.60;101095.00;;;;5087025;28;20412;-73
2021/10/20 06:46:02;;;;;;;3.55;1.00;;;;;9.50;101113.00;;;;5086988;28;20126;-72
2021/10/20 06:48:32;;;;;;;5.28;1.27;;;;;9.60;101130.00;;;;5086972;28;20036;-75
2021/10/20 06:51:01;;;;;;;5.40;1.15;;;;;9.60;101122.00;;;;5087072;28;20168;-75
2021/10/20 06:53:31;;;;;;;3.72;1.33;;;;;9.60;101107.00;;;;5087128;28;20052;-76
2021/10/20 06:56:02;;;;;;;5.82;1.23;;;;;9.60;101128.00;;;;5086799;28;20051;-73
2021/10/20 06:58:32;;;;;;;7.50;1.58;;;;;9.60;101118.00;;;;5087206;28;20514;-73
2021/10/20 07:01:01;;;;;;;3.88;1.30;;;;;9.50;101102.00;;;;5086710;28;20105;-74
2021/10/20 07:03:31;;;;;;;6.57;1.67;;;;;9.50;101126.00;;;;5086885;28;20043;-73
2021/10/20 07:06:00;;;;;;;9.55;1.65;;;;;9.50;101123.00;;;;5086632;28;20067;-75
2021/10/20 07:08:30;;;;;;;6.32;1.60;;;;;9.60;101107.00;;;;5087128;28;20052;-74
2021/10/20 07:10:59;;;;;;;6.68;1.45;;;;;9.50;101083.00;;;;5086639;28;20101;-72
2021/10/20 07:13:29;;;;;;;2.75;1.25;;;;;9.60;101096.00;;;;5086245;28;20132;-72
2021/10/20 07:15:58;;;;;;;4.88;1.40;;;;;9.50;101115.00;;;;5086592;28;20059;-74
2021/10/20 07:18:29;;;;;;;8.45;1.20;;;;;9.50;101112.00;;;;5086822;28;20056;-75
2021/10/20 07:21:01;;;;;;;7.72;1.60;;;;;9.40;101121.00;;;;5087083;28;20525;-75
2021/10/20 07:23:31;;;;;;;7.15;1.50;;;;;9.30;101131.00;;;;5086943;28;20101;-74
2021/10/20 07:26:01;;;;;;;4.43;1.60;;;;;9.30;101112.00;;;;5086439;28;20051;-74
2021/10/20 07:28:30;;;;;;;6.95;1.50;;;;;9.40;101102.00;;;;5087493;28;20090;-74
2021/10/20 07:30:59;;;;;;;3.47;1.17;;;;;9.40;101123.00;;;;5086905;28;20056;-76
2021/10/20 07:33:34;;;;;;;3.95;1.40;;;;;9.30;101110.00;;;;5086414;28;20067;-74
2021/10/20 07:36:04;;;;;;;8.70;1.40;;;;;9.40;101118.00;;;;5086487;28;20055;-75
2021/10/20 07:38:33;;;;;;;7.55;1.67;;;;;9.40;101085.00;;;;5086093;28;20051;-73
2021/10/20 07:41:03;;;;;;;4.22;1.10;;;;;9.40;101084.00;;;;5086139;28;20681;-74
2021/10/20 07:43:33;;;;;;;4.43;1.30;;;;;9.30;101106.00;;;;5086702;28;20040;-74
2021/10/20 07:46:03;;;;;;;5.65;1.27;;;;;9.40;101105.00;;;;5087500;28;20078;-74
2021/10/20 07:48:32;;;;;;;7.15;1.25;;;;;9.40;101124.00;;;;5089906;28;20113;-75
2021/10/20 07:51:01;;;;;;;7.45;1.48;;;;;9.40;101111.00;;;;5089868;28;20047;-74
2021/10/20 07:53:31;;;;;;;3.40;1.20;;;;;9.40;101123.00;;;;5090095;28;20434;-75
2021/10/20 07:56:00;;;;;;;6.60;1.73;;;;;9.40;101109.00;;;;5088687;28;20094;-76
2021/10/20 07:58:30;;;;;;;7.82;1.92;;;;;9.30;101114.00;;;;5089528;28;20056;-72
2021/10/20 08:00:59;;;;;;;11.18;2.72;;;;;9.40;101120.00;;;;5089437;28;20106;-76
2021/10/20 08:03:29;;;;;;;7.45;2.00;;;;;9.30;101091.00;;;;5089259;28;20050;-73
2021/10/20 08:05:59;;;;;;;6.43;2.10;;;;;9.30;101124.00;;;;5089522;28;20052;-72
2021/10/20 08:08:28;;;;;;;5.68;2.17;;;;;9.30;101100.00;;;;5089383;28;20079;-73
2021/10/20 08:10:58;;;;;;;7.22;2.75;;;;;9.30;101124.00;;;;5089452;28;20098;-75
2021/10/20 08:13:27;;;;;;;8.43;3.20;;;;;9.30;101132.00;;;;5089513;28;20079;-74
2021/10/20 08:15:57;;;;;;;8.10;3.40;;;;;9.30;101109.00;;;;5088079;28;20134;-76
2021/10/20 08:18:27;;;;;;;8.95;3.25;;;;;9.20;101132.00;;;;5088298;28;20043;-73
2021/10/20 08:20:57;;;;;;;7.25;3.47;;;;;9.20;101125.00;;;;5090114;28;20036;-75
2021/10/20 08:23:28;;;;;;;15.02;4.07;;;;;9.20;101126.00;;;;5089768;28;20114;-75
2021/10/20 08:25:58;;;;;;;13.70;3.60;;;;;9.20;101146.00;;;;5089024;28;20040;-73
2021/10/20 08:28:27;;;;;;;8.88;4.25;;;;;9.20;101138.00;;;;5089175;28;20123;-73
2021/10/20 08:30:57;;;;;;;13.32;4.22;;;;;9.20;101116.00;;;;5089629;28;20085;-76
2021/10/20 08:33:26;;;;;;;13.40;4.80;;;;;9.20;101144.00;;;;5089034;28;20110;-74
2021/10/20 08:35:56;;;;;;;14.20;4.88;;;;;9.30;101142.00;;;;5089199;28;20499;-75
2021/10/20 08:38:26;;;;;;;11.70;4.53;;;;;9.30;101148.00;;;;5088922;28;20392;-75
2021/10/20 08:40:56;;;;;;;8.95;4.03;;;;;9.30;101158.00;;;;5088683;28;20048;-73
2021/10/20 08:43:26;;;;;;;9.80;4.30;;;;;9.20;101131.00;;;;5088661;28;20510;-75
2021/10/20 08:45:55;;;;;;;10.88;4.45;;;;;9.30;101155.00;;;;5087808;28;20498;-75
2021/10/20 08:48:26;;;;;;;8.02;4.57;;;;;9.30;101158.00;;;;5089564;28;20426;-74
2021/10/20 08:51:01;;;;;;;9.85;4.32;;;;;9.40;101131.00;;;;5088543;28;20058;-74
2021/10/20 08:53:31;;;;;;;8.30;4.97;;;;;9.40;101148.00;;;;5088345;28;20040;-75
2021/10/20 08:56:00;;;;;;;10.57;6.13;;;;;9.40;101166.00;;;;5087099;28;20048;-74
2021/10/20 08:58:30;;;;;;;9.77;5.05;;;;;9.40;101153.00;;;;5086601;28;20063;-74
2021/10/20 09:00:59;;;;;;;9.77;5.22;;;;;9.40;101145.00;;;;5088351;28;20066;-74
2021/10/20 09:03:29;;;;;;;13.32;4.72;;;;;9.40;101183.00;;;;5088705;28;20076;-73
2021/10/20 09:05:59;;;;;;;15.50;5.40;;;;;9.40;101185.00;;;;5088487;28;20040;-73
2021/10/20 09:08:48;;;;;;;10.93;5.32;;;;;9.50;101175.00;;;;5088611;28;20093;-73
2021/10/20 09:11:32;;;;;;;10.27;4.90;;;;;9.40;101159.00;;;;5088613;28;20418;-76
2021/10/20 09:14:13;;;;;;;14.85;4.82;;;;;9.60;101185.00;;;;5088293;28;20095;-75
2021/10/20 09:16:44;;;;;;;12.13;4.68;;;;;9.60;101190.00;;;;5088759;28;20047;-74
2021/10/20 09:19:18;;;;;;;10.17;4.43;;;;;9.70;101184.00;;;;5088081;28;20051;-74
2021/10/20 09:21:51;;;;;;;10.40;4.70;;;;;9.70;101206.00;;;;5088042;28;20370;-75
2021/10/20 09:24:22;;;;;;;14.77;5.10;;;;;9.80;101160.00;;;;5088317;28;20048;-76
2021/10/20 09:26:55;;;;;;;8.82;4.45;;;;;9.90;101181.00;;;;5087782;28;20147;-75
2021/10/20 09:29:31;;;;;;;9.88;3.92;;;;;10.00;101183.00;;;;5086733;28;20062;-76
2021/10/20 09:32:02;;;;;;;12.35;4.07;;;;;10.10;101196.00;;;;5087920;28;20051;-76
2021/10/20 09:34:39;;;;;;;14.85;4.00;;;;;10.20;101195.00;;;;5087619;28;20052;-74
2021/10/20 09:37:09;;;;;;;7.63;3.75;;;;;10.30;101189.00;;;;5088684;28;20794;-73
2021/10/20 09:39:39;;;;;;;12.75;3.55;;;;;10.40;101201.00;;;;5087969;28;20056;-73
2021/10/20 09:42:16;;;;;;;14.43;4.40;;;;;10.60;101224.00;;;;5087970;28;20123;-74
2021/10/20 09:44:48;;;;;;;6.90;3.60;;;;;10.80;101202.00;;;;5087293;28;20040;-76
2021/10/20 09:47:19;;;;;;;9.45;3.42;;;;;10.90;101202.00;;;;5087545;28;20067;-76
2021/10/20 09:49:54;;;;;;;12.15;3.35;;;;;11.30;101189.00;;;;5087798;28;20054;-75
2021/10/20 09:52:25;;;;;;;16.25;3.30;;;;;15.00;101010.00;;;;5087542;28;20521;-75
2021/10/20 09:54:57;;;;;;;41.55;5.93;;;;;18.30;100970.00;;;;5087559;28;20046;-73
2021/10/20 09:57:30;;;;;;;;;;;;;20.30;100984.00;;;;5087697;28;20594;-74
2021/10/20 10:00:01;;;;;;;18.30;3.33;;;;;20.60;100961.00;;;;5087327;28;20290;-76
2021/10/20 10:02:38;;;;;;;15.73;3.50;;;;;18.40;101061.00;;;;5087562;28;20051;-75
2021/10/20 10:05:09;;;;;;;7.28;2.85;;;;;17.20;101118.00;;;;5087441;28;20046;-75
2021/10/20 10:07:38;;;;;;;13.10;3.13;;;;;15.70;101133.00;;;;5087114;28;20059;-76
2021/10/20 10:10:08;;;;;;;10.70;2.80;;;;;15.70;101136.00;;;;5087177;28;20039;-75
2021/10/20 10:12:39;;;;;;;8.65;2.95;;;;;16.80;101056.00;;;;5087279;28;20419;-74
2021/10/20 10:15:11;;;;;;;22.38;3.28;;;;;18.60;101000.00;;;;5086816;28;20052;-73
2021/10/20 10:17:56;;;;;;;7.10;2.50;;;;;21.40;100939.00;;;;5087136;28;20122;-75
2021/10/20 10:20:31;;;;;;;6.50;2.25;;;;;21.30;100979.00;;;;5086953;28;20036;-74
2021/10/20 10:23:07;;;;;;;8.85;2.30;;;;;20.60;101070.00;;;;5086289;28;20453;-75
2021/10/20 10:25:40;;;;;;;6.32;1.50;;;;;19.20;101048.00;;;;5087177;28;20763;-76
2021/10/20 10:28:23;;;;;;;9.07;1.75;;;;;21.00;100952.00;;;;5087404;28;20055;-74
2021/10/20 10:31:06;;;;;;;14.75;2.58;;;;;23.10;100913.00;;;;5087068;28;20043;-76
2021/10/20 10:33:53;;;;;;;10.32;1.65;;;;;23.30;100896.00;;;;5086030;28;20036;-74
2021/10/20 10:36:24;;;;;;;11.75;2.50;;;;;23.20;100884.00;;;;5085387;28;20059;-76
2021/10/20 10:39:05;;;;;;;24.23;2.38;;;;;24.00;100918.00;;;;5087165;28;20135;-74
2021/10/20 10:41:48;;;;;;;3.88;1.05;;;;;22.40;100941.00;;;;5086885;28;20036;-77
2021/10/20 10:44:23;;;;;;;4.25;1.25;;;;;23.40;100903.00;;;;5086294;28;20055;-73
2021/10/20 10:46:53;;;;;;;8.32;1.40;;;;;23.30;100931.00;;;;5086873;28;20050;-74
2021/10/20 10:49:35;;;;;;;10.10;1.65;;;;;23.40;100961.00;;;;5086908;28;20056;-73
2021/10/20 10:52:25;;;;;;;14.13;2.40;;;;;23.90;100934.00;;;;5085746;28;20044;-74
2021/10/20 10:54:56;;;;;;;22.67;4.65;;;;;24.10;100938.00;;;;5087258;28;20040;-77
2021/10/20 10:57:54;;;;;;;13.05;1.92;;;;;24.90;100953.00;;;;5085688;28;20052;-77
2021/10/20 11:00:31;;;;;;;17.55;1.58;;;;;24.30;100938.00;;;;5085876;28;20080;-75
2021/10/20 11:03:07;;;;;;;7.32;1.13;;;;;24.60;100936.00;;;;5086652;28;20066;-76
2021/10/20 11:05:37;;;;;;;6.00;1.60;;;;;24.10;100951.00;;;;5086829;28;20048;-76
2021/10/20 11:08:10;;;;;;;8.38;1.95;;;;;24.00;100939.00;;;;5086323;28;20040;-76
2021/10/20 11:10:41;;;;;;;3.85;1.33;;;;;25.00;100918.00;;;;5086480;28;20543;-76
2021/10/20 11:13:16;;;;;;;7.85;1.35;;;;;25.10;100924.00;;;;5086679;28;20047;-75
2021/10/20 11:15:47;;;;;;;8.75;2.03;;;;;24.90;100946.00;;;;5086397;28;20064;-75
2021/10/20 11:18:20;;;;;;;5.88;1.40;;;;;25.30;100962.00;;;;5086222;28;20059;-74
2021/10/20 11:20:50;;;;;;;21.98;3.70;;;;;24.80;100977.00;;;;5089760;28;20499;-74
2021/10/20 11:23:20;;;;;;;12.68;2.13;;;;;23.10;100987.00;;;;5090615;28;20127;-75
2021/10/20 11:25:49;;;;;;;9.20;2.10;;;;;24.50;100987.00;;;;5090432;28;20040;-74
2021/10/20 11:28:19;;;;;;;16.48;2.75;;;;;24.70;101000.00;;;;5090591;28;20066;-75
2021/10/20 11:30:48;;;;;;;5.22;1.27;;;;;24.30;101005.00;;;;5089766;28;20045;-75
2021/10/20 11:33:18;;;;;;;11.32;1.50;;;;;24.30;100985.00;;;;5089863;28;20044;-74
2021/10/20 11:35:48;;;;;;;9.90;2.25;;;;;24.10;100994.00;;;;5089804;28;20446;-75
2021/10/20 11:38:18;;;;;;;11.40;1.90;;;;;23.50;100979.00;;;;5090138;28;20067;-75
2021/10/20 11:40:53;;;;;;;6.85;1.40;;;;;23.60;100983.00;;;;5089927;28;20511;-74
2021/10/20 11:43:27;;;;;;;5.65;1.50;;;;;23.80;101088.00;;;;5088269;28;20064;-73
2021/10/20 11:45:59;;;;;;;4.38;1.50;;;;;23.40;101130.00;;;;5090133;28;20044;-73
2021/10/20 11:48:30;;;;;;;4.22;1.45;;;;;22.90;101143.00;;;;5089798;28;20040;-73
2021/10/20 11:51:02;;;;;;;7.15;1.50;;;;;21.70;101134.00;;;;5089672;28;20037;-73
2021/10/20 11:53:31;;;;;;;6.25;1.77;;;;;20.80;101147.00;;;;5089605;28;20087;-73
2021/10/20 11:56:02;;;;;;;3.65;1.20;;;;;20.80;101144.00;;;;5089499;28;20044;-75
2021/10/20 11:58:33;;;;;;;5.03;2.13;;;;;21.30;101124.00;;;;5088123;28;20063;-75
2021/10/20 12:01:07;;;;;;;5.32;1.45;;;;;21.80;101130.00;;;;5089231;28;20055;-74
2021/10/20 12:03:42;;;;;;;4.18;1.50;;;;;21.60;101143.00;;;;5089527;28;20831;-76
2021/10/20 12:06:17;;;;;;;5.43;2.10;;;;;22.00;101133.00;;;;5089290;28;20052;-75
2021/10/20 12:08:48;;;;;;;7.70;1.70;;;;;21.90;101135.00;;;;5089494;28;20048;-73
2021/10/20 12:11:20;;;;;;;5.60;1.25;;;;;21.70;101122.00;;;;5089393;28;20109;-73
2021/10/20 12:13:50;;;;;;;4.80;1.45;;;;;22.10;101131.00;;;;5088753;28;20122;-74
2021/10/20 12:16:20;;;;;;;3.80;1.30;;;;;21.60;101137.00;;;;5088945;28;20538;-72
2021/10/20 12:18:52;;;;;;;7.00;0.95;;;;;22.50;101137.00;;;;5089338;28;20044;-73
2021/10/20 12:21:22;;;;;;;4.15;1.23;;;;;23.20;101142.00;;;;5088737;28;20048;-76
2021/10/20 12:23:51;;;;;;;6.97;1.80;;;;;22.30;101110.00;;;;5088694;28;20075;-73
2021/10/20 12:26:21;;;;;;;11.50;1.60;;;;;22.00;101128.00;;;;5088821;28;20040;-74